sensor_id;sensor_type;location;lat;lon;timestamp;temperature;humidity
19220;DHT22;9744;49.364;7.484;2023-03-30T00:00:34;12.60;99.90
19220;DHT22;9744;49.364;7.484;2023-03-30T00:03:03;12.50;99.90
19220;DHT22;9744;49.364;7.484;2023-03-30T00:05:30;12.50;99.90
19220;DHT22;9744;49.364;7.484;2023-03-30T00:07:57;12.50;99.90
19220;DHT22;9744;49.364;7.484;2023-03-30T00:10:25;12.50;99.90
19220;DHT22;9744;49.364;7.484;2023-03-30T00:12:55;12.60;99.90
19220;DHT22;9744;49.364;7.484;2023-03-30T00:15:23;12.60;99.90
19220;DHT22;9744;49.364;7.484;2023-03-30T00:17:51;12.60;99.90
19220;DHT22;9744;49.364;7.484;2023-03-30T00:20:20;12.60;99.90
19220;DHT22;9744;49.364;7.484;2023-03-30T00:22:48;12.30;99.90
19220;DHT22;9744;49.364;7.484;2023-03-30T00:25:16;12.70;99.90
19220;DHT22;9744;49.364;7.484;2023-03-30T00:27:43;12.80;99.90
19220;DHT22;9744;49.364;7.484;2023-03-30T00:30:14;12.80;99.90
19220;DHT22;9744;49.364;7.484;2023-03-30T00:32:41;12.80;99.90
19220;DHT22;9744;49.364;7.484;2023-03-30T00:35:09;12.80;99.90
19220;DHT22;9744;49.364;7.484;2023-03-30T00:37:37;12.80;99.90
19220;DHT22;9744;49.364;7.484;2023-03-30T00:40:07;12.80;99.90
19220;DHT22;9744;49.364;7.484;2023-03-30T00:42:36;12.80;99.90
19220;DHT22;9744;49.364;7.484;2023-03-30T00:45:19;12.80;99.90
19220;DHT22;9744;49.364;7.484;2023-03-30T00:47:50;12.90;99.90
19220;DHT22;9744;49.364;7.484;2023-03-30T00:50:21;13.00;99.90
19220;DHT22;9744;49.364;7.484;2023-03-30T00:52:49;13.00;99.90
19220;DHT22;9744;49.364;7.484;2023-03-30T00:55:20;13.10;99.90
19220;DHT22;9744;49.364;7.484;2023-03-30T00:57:48;13.20;99.90
19220;DHT22;9744;49.364;7.484;2023-03-30T01:00:18;13.10;99.90
19220;DHT22;9744;49.364;7.484;2023-03-30T01:02:50;13.20;99.90
19220;DHT22;9744;49.364;7.484;2023-03-30T01:05:21;13.20;99.90
19220;DHT22;9744;49.364;7.484;2023-03-30T01:07:50;13.20;99.90
19220;DHT22;9744;49.364;7.484;2023-03-30T01:10:18;13.30;99.90
19220;DHT22;9744;49.364;7.484;2023-03-30T01:12:46;13.30;99.90
19220;DHT22;9744;49.364;7.484;2023-03-30T01:15:14;13.30;99.90
19220;DHT22;9744;49.364;7.484;2023-03-30T01:17:53;13.30;99.90
19220;DHT22;9744;49.364;7.484;2023-03-30T01:20:39;13.40;99.90
19220;DHT22;9744;49.364;7.484;2023-03-30T01:23:39;13.40;99.90
19220;DHT22;9744;49.364;7.484;2023-03-30T01:26:30;13.40;99.90
19220;DHT22;9744;49.364;7.484;2023-03-30T01:29:08;13.40;99.90
19220;DHT22;9744;49.364;7.484;2023-03-30T01:31:50;13.40;99.90
19220;DHT22;9744;49.364;7.484;2023-03-30T01:35:03;13.10;99.90
19220;DHT22;9744;49.364;7.484;2023-03-30T01:38:07;12.90;99.90
19220;DHT22;9744;49.364;7.484;2023-03-30T01:40:45;12.80;99.90
19220;DHT22;9744;49.364;7.484;2023-03-30T01:43:17;12.70;99.90
19220;DHT22;9744;49.364;7.484;2023-03-30T01:45:49;12.60;99.90
19220;DHT22;9744;49.364;7.484;2023-03-30T01:48:25;12.50;99.90
19220;DHT22;9744;49.364;7.484;2023-03-30T01:51:00;12.40;99.90
19220;DHT22;9744;49.364;7.484;2023-03-30T01:53:32;12.40;99.90
19220;DHT22;9744;49.364;7.484;2023-03-30T01:56:07;12.40;99.90
19220;DHT22;9744;49.364;7.484;2023-03-30T01:58:43;12.40;99.90
19220;DHT22;9744;49.364;7.484;2023-03-30T02:01:14;12.30;99.90
19220;DHT22;9744;49.364;7.484;2023-03-30T02:03:49;12.30;99.90
19220;DHT22;9744;49.364;7.484;2023-03-30T02:06:22;12.40;99.90
19220;DHT22;9744;49.364;7.484;2023-03-30T02:08:53;12.40;99.90
19220;DHT22;9744;49.364;7.484;2023-03-30T02:11:23;12.50;99.90
19220;DHT22;9744;49.364;7.484;2023-03-30T02:13:54;12.50;99.90
19220;DHT22;9744;49.364;7.484;2023-03-30T02:16:28;12.40;99.90
19220;DHT22;9744;49.364;7.484;2023-03-30T02:18:59;12.40;99.90
19220;DHT22;9744;49.364;7.484;2023-03-30T02:21:27;12.30;99.90
19220;DHT22;9744;49.364;7.484;2023-03-30T02:23:55;12.30;99.90
19220;DHT22;9744;49.364;7.484;2023-03-30T02:26:25;12.20;99.90
19220;DHT22;9744;49.364;7.484;2023-03-30T02:28:54;12.10;99.90
19220;DHT22;9744;49.364;7.484;2023-03-30T02:31:22;12.20;99.90
19220;DHT22;9744;49.364;7.484;2023-03-30T02:34:03;12.10;99.90
19220;DHT22;9744;49.364;7.484;2023-03-30T02:37:06;12.10;99.90
19220;DHT22;9744;49.364;7.484;2023-03-30T02:39:47;12.00;99.90
19220;DHT22;9744;49.364;7.484;2023-03-30T02:42:36;12.00;99.90
19220;DHT22;9744;49.364;7.484;2023-03-30T02:45:19;12.00;99.90
19220;DHT22;9744;49.364;7.484;2023-03-30T02:47:58;12.10;99.90
19220;DHT22;9744;49.364;7.484;2023-03-30T02:50:32;12.00;99.90
19220;DHT22;9744;49.364;7.484;2023-03-30T02:53:12;12.00;99.90
19220;DHT22;9744;49.364;7.484;2023-03-30T02:55:52;12.00;99.90
19220;DHT22;9744;49.364;7.484;2023-03-30T02:58:36;12.00;99.90
19220;DHT22;9744;49.364;7.484;2023-03-30T03:01:18;12.00;99.90
19220;DHT22;9744;49.364;7.484;2023-03-30T03:03:59;12.00;99.90
19220;DHT22;9744;49.364;7.484;2023-03-30T03:06:32;11.90;99.90
19220;DHT22;9744;49.364;7.484;2023-03-30T03:09:00;11.90;99.90
19220;DHT22;9744;49.364;7.484;2023-03-30T03:11:31;11.90;99.90
19220;DHT22;9744;49.364;7.484;2023-03-30T03:14:00;11.90;99.90
19220;DHT22;9744;49.364;7.484;2023-03-30T03:16:29;11.80;99.90
19220;DHT22;9744;49.364;7.484;2023-03-30T03:19:13;11.90;99.90
19220;DHT22;9744;49.364;7.484;2023-03-30T03:21:42;11.90;99.90
19220;DHT22;9744;49.364;7.484;2023-03-30T03:24:09;11.80;99.90
19220;DHT22;9744;49.364;7.484;2023-03-30T03:26:58;11.80;99.90
19220;DHT22;9744;49.364;7.484;2023-03-30T03:29:29;11.80;99.90
19220;DHT22;9744;49.364;7.484;2023-03-30T03:31:56;11.80;99.90
19220;DHT22;9744;49.364;7.484;2023-03-30T03:34:26;11.80;99.90
19220;DHT22;9744;49.364;7.484;2023-03-30T03:37:03;11.80;99.90
19220;DHT22;9744;49.364;7.484;2023-03-30T03:39:32;11.80;99.90
19220;DHT22;9744;49.364;7.484;2023-03-30T03:42:08;11.70;99.90
19220;DHT22;9744;49.364;7.484;2023-03-30T03:44:45;11.70;99.90
19220;DHT22;9744;49.364;7.484;2023-03-30T03:47:14;11.70;99.90
19220;DHT22;9744;49.364;7.484;2023-03-30T03:49:42;11.50;99.90
19220;DHT22;9744;49.364;7.484;2023-03-30T03:52:09;11.50;99.90
19220;DHT22;9744;49.364;7.484;2023-03-30T03:54:36;11.40;99.90
19220;DHT22;9744;49.364;7.484;2023-03-30T03:57:03;11.40;99.90
19220;DHT22;9744;49.364;7.484;2023-03-30T03:59:32;11.50;99.90
19220;DHT22;9744;49.364;7.484;2023-03-30T04:02:00;11.50;99.90
19220;DHT22;9744;49.364;7.484;2023-03-30T04:04:27;11.40;99.90
19220;DHT22;9744;49.364;7.484;2023-03-30T04:06:55;11.40;99.90
19220;DHT22;9744;49.364;7.484;2023-03-30T04:09:22;11.40;99.90
19220;DHT22;9744;49.364;7.484;2023-03-30T04:12:07;11.50;99.90
19220;DHT22;9744;49.364;7.484;2023-03-30T04:14:40;11.50;99.90
19220;DHT22;9744;49.364;7.484;2023-03-30T04:17:38;11.50;99.90
19220;DHT22;9744;49.364;7.484;2023-03-30T04:20:20;11.50;99.90
19220;DHT22;9744;49.364;7.484;2023-03-30T04:23:03;11.50;99.90
19220;DHT22;9744;49.364;7.484;2023-03-30T04:26:08;11.50;99.90
19220;DHT22;9744;49.364;7.484;2023-03-30T04:28:47;11.50;99.90
19220;DHT22;9744;49.364;7.484;2023-03-30T04:31:41;11.50;99.90
19220;DHT22;9744;49.364;7.484;2023-03-30T04:34:27;11.50;99.90
19220;DHT22;9744;49.364;7.484;2023-03-30T04:37:14;11.50;99.90
19220;DHT22;9744;49.364;7.484;2023-03-30T04:40:06;11.40;99.90
19220;DHT22;9744;49.364;7.484;2023-03-30T04:43:02;11.40;99.90
19220;DHT22;9744;49.364;7.484;2023-03-30T04:45:48;11.30;99.90
19220;DHT22;9744;49.364;7.484;2023-03-30T04:48:28;11.30;99.90
19220;DHT22;9744;49.364;7.484;2023-03-30T04:51:09;11.30;99.90
19220;DHT22;9744;49.364;7.484;2023-03-30T04:53:36;11.30;99.90
19220;DHT22;9744;49.364;7.484;2023-03-30T04:56:12;11.30;99.90
19220;DHT22;9744;49.364;7.484;2023-03-30T04:58:49;11.20;99.90
19220;DHT22;9744;49.364;7.484;2023-03-30T05:01:23;11.20;99.90
19220;DHT22;9744;49.364;7.484;2023-03-30T05:04:14;11.20;99.90
19220;DHT22;9744;49.364;7.484;2023-03-30T05:07:02;11.20;99.90
19220;DHT22;9744;49.364;7.484;2023-03-30T05:09:48;11.20;99.90
19220;DHT22;9744;49.364;7.484;2023-03-30T05:12:39;11.10;99.90
19220;DHT22;9744;49.364;7.484;2023-03-30T05:15:15;11.10;99.90
19220;DHT22;9744;49.364;7.484;2023-03-30T05:18:08;11.00;99.90
19220;DHT22;9744;49.364;7.484;2023-03-30T05:21:08;11.00;99.90
19220;DHT22;9744;49.364;7.484;2023-03-30T05:23:58;10.90;99.90
19220;DHT22;9744;49.364;7.484;2023-03-30T05:26:54;10.90;99.90
19220;DHT22;9744;49.364;7.484;2023-03-30T05:29:36;10.90;99.90
19220;DHT22;9744;49.364;7.484;2023-03-30T05:32:41;10.90;99.90
19220;DHT22;9744;49.364;7.484;2023-03-30T05:35:33;10.80;99.90
19220;DHT22;9744;49.364;7.484;2023-03-30T05:38:14;10.80;99.90
19220;DHT22;9744;49.364;7.484;2023-03-30T05:41:02;10.80;99.90
19220;DHT22;9744;49.364;7.484;2023-03-30T05:43:50;10.80;99.90
19220;DHT22;9744;49.364;7.484;2023-03-30T05:46:30;10.80;99.90
19220;DHT22;9744;49.364;7.484;2023-03-30T05:49:35;10.70;99.90
19220;DHT22;9744;49.364;7.484;2023-03-30T05:52:13;10.60;99.90
19220;DHT22;9744;49.364;7.484;2023-03-30T05:54:58;10.60;99.90
19220;DHT22;9744;49.364;7.484;2023-03-30T05:57:43;10.60;99.90
19220;DHT22;9744;49.364;7.484;2023-03-30T06:00:28;10.50;99.90
19220;DHT22;9744;49.364;7.484;2023-03-30T06:03:06;10.50;99.90
19220;DHT22;9744;49.364;7.484;2023-03-30T06:05:36;10.50;99.90
19220;DHT22;9744;49.364;7.484;2023-03-30T06:08:04;10.50;99.90
19220;DHT22;9744;49.364;7.484;2023-03-30T06:10:33;10.40;99.90
19220;DHT22;9744;49.364;7.484;2023-03-30T06:13:03;10.40;99.90
19220;DHT22;9744;49.364;7.484;2023-03-30T06:15:48;10.40;99.90
19220;DHT22;9744;49.364;7.484;2023-03-30T06:18:19;10.40;99.90
19220;DHT22;9744;49.364;7.484;2023-03-30T06:21:07;10.40;99.90
19220;DHT22;9744;49.364;7.484;2023-03-30T06:23:53;10.40;99.90
19220;DHT22;9744;49.364;7.484;2023-03-30T06:26:23;10.30;99.90
19220;DHT22;9744;49.364;7.484;2023-03-30T06:28:52;10.40;99.90
19220;DHT22;9744;49.364;7.484;2023-03-30T06:31:20;10.30;99.90
19220;DHT22;9744;49.364;7.484;2023-03-30T06:33:54;10.30;99.90
19220;DHT22;9744;49.364;7.484;2023-03-30T06:36:22;10.30;99.90
19220;DHT22;9744;49.364;7.484;2023-03-30T06:38:49;10.30;99.90
19220;DHT22;9744;49.364;7.484;2023-03-30T06:41:17;10.30;99.90
19220;DHT22;9744;49.364;7.484;2023-03-30T06:43:47;10.30;99.90
19220;DHT22;9744;49.364;7.484;2023-03-30T06:46:17;10.30;99.90
19220;DHT22;9744;49.364;7.484;2023-03-30T06:48:47;10.30;99.90
19220;DHT22;9744;49.364;7.484;2023-03-30T06:51:33;10.30;99.90
19220;DHT22;9744;49.364;7.484;2023-03-30T06:54:02;10.30;99.90
19220;DHT22;9744;49.364;7.484;2023-03-30T06:56:30;10.40;99.90
19220;DHT22;9744;49.364;7.484;2023-03-30T06:59:18;10.40;99.90
19220;DHT22;9744;49.364;7.484;2023-03-30T07:02:05;10.40;99.90
19220;DHT22;9744;49.364;7.484;2023-03-30T07:04:59;10.40;99.90
19220;DHT22;9744;49.364;7.484;2023-03-30T07:07:44;10.40;99.90
19220;DHT22;9744;49.364;7.484;2023-03-30T07:10:12;10.40;99.90
19220;DHT22;9744;49.364;7.484;2023-03-30T07:12:39;10.40;99.90
19220;DHT22;9744;49.364;7.484;2023-03-30T07:15:09;10.40;99.90
19220;DHT22;9744;49.364;7.484;2023-03-30T07:17:38;10.40;99.90
19220;DHT22;9744;49.364;7.484;2023-03-30T07:20:06;10.40;99.90
19220;DHT22;9744;49.364;7.484;2023-03-30T07:22:46;10.40;99.90
19220;DHT22;9744;49.364;7.484;2023-03-30T07:25:14;10.50;99.90
19220;DHT22;9744;49.364;7.484;2023-03-30T07:27:42;10.50;99.90
19220;DHT22;9744;49.364;7.484;2023-03-30T07:30:10;10.50;99.90
19220;DHT22;9744;49.364;7.484;2023-03-30T07:32:39;10.60;99.90
19220;DHT22;9744;49.364;7.484;2023-03-30T07:35:08;10.70;99.90
19220;DHT22;9744;49.364;7.484;2023-03-30T07:37:36;10.70;99.90
19220;DHT22;9744;49.364;7.484;2023-03-30T07:40:06;10.70;99.90
19220;DHT22;9744;49.364;7.484;2023-03-30T07:42:37;10.70;99.90
19220;DHT22;9744;49.364;7.484;2023-03-30T07:45:05;10.70;99.90
19220;DHT22;9744;49.364;7.484;2023-03-30T07:47:33;10.80;99.90
19220;DHT22;9744;49.364;7.484;2023-03-30T07:50:02;10.90;99.90
19220;DHT22;9744;49.364;7.484;2023-03-30T07:52:29;10.90;99.90
19220;DHT22;9744;49.364;7.484;2023-03-30T07:55:02;11.00;99.90
19220;DHT22;9744;49.364;7.484;2023-03-30T07:57:39;11.00;99.90
19220;DHT22;9744;49.364;7.484;2023-03-30T08:00:08;11.10;99.90
19220;DHT22;9744;49.364;7.484;2023-03-30T08:02:53;11.20;99.90
19220;DHT22;9744;49.364;7.484;2023-03-30T08:05:21;11.20;99.90
19220;DHT22;9744;49.364;7.484;2023-03-30T08:08:02;11.20;99.90
19220;DHT22;9744;49.364;7.484;2023-03-30T08:10:33;11.10;99.90
19220;DHT22;9744;49.364;7.484;2023-03-30T08:13:01;11.10;99.90
19220;DHT22;9744;49.364;7.484;2023-03-30T08:15:28;11.10;99.90
19220;DHT22;9744;49.364;7.484;2023-03-30T08:17:55;11.00;99.90
19220;DHT22;9744;49.364;7.484;2023-03-30T08:20:26;11.00;99.90
19220;DHT22;9744;49.364;7.484;2023-03-30T08:22:54;11.10;99.90
19220;DHT22;9744;49.364;7.484;2023-03-30T08:25:21;11.00;99.90
19220;DHT22;9744;49.364;7.484;2023-03-30T08:27:48;11.00;99.90
19220;DHT22;9744;49.364;7.484;2023-03-30T08:30:15;10.90;99.90
19220;DHT22;9744;49.364;7.484;2023-03-30T08:32:42;10.90;99.90
19220;DHT22;9744;49.364;7.484;2023-03-30T08:35:10;10.90;99.90
19220;DHT22;9744;49.364;7.484;2023-03-30T08:37:41;10.90;99.90
19220;DHT22;9744;49.364;7.484;2023-03-30T08:40:10;10.90;99.90
19220;DHT22;9744;49.364;7.484;2023-03-30T08:43:01;10.80;99.90
19220;DHT22;9744;49.364;7.484;2023-03-30T08:45:34;10.80;99.90
19220;DHT22;9744;49.364;7.484;2023-03-30T08:48:05;10.80;99.90
19220;DHT22;9744;49.364;7.484;2023-03-30T08:50:34;10.70;99.90
19220;DHT22;9744;49.364;7.484;2023-03-30T08:53:07;10.70;99.90
19220;DHT22;9744;49.364;7.484;2023-03-30T08:55:40;10.70;99.90
19220;DHT22;9744;49.364;7.484;2023-03-30T08:58:12;10.70;99.90
19220;DHT22;9744;49.364;7.484;2023-03-30T09:00:44;10.70;99.90
19220;DHT22;9744;49.364;7.484;2023-03-30T09:03:17;10.60;99.90
19220;DHT22;9744;49.364;7.484;2023-03-30T09:05:49;10.70;99.90
19220;DHT22;9744;49.364;7.484;2023-03-30T09:08:20;10.70;99.90
19220;DHT22;9744;49.364;7.484;2023-03-30T09:10:51;10.70;99.90
19220;DHT22;9744;49.364;7.484;2023-03-30T09:13:22;10.70;99.90
19220;DHT22;9744;49.364;7.484;2023-03-30T09:15:53;10.70;99.90
19220;DHT22;9744;49.364;7.484;2023-03-30T09:18:30;10.70;99.90
19220;DHT22;9744;49.364;7.484;2023-03-30T09:21:02;10.70;99.90
19220;DHT22;9744;49.364;7.484;2023-03-30T09:23:32;10.70;99.90
19220;DHT22;9744;49.364;7.484;2023-03-30T09:26:08;10.70;99.90
19220;DHT22;9744;49.364;7.484;2023-03-30T09:28:43;10.70;99.90
19220;DHT22;9744;49.364;7.484;2023-03-30T09:31:17;10.70;99.90
19220;DHT22;9744;49.364;7.484;2023-03-30T09:33:52;10.80;99.90
19220;DHT22;9744;49.364;7.484;2023-03-30T09:36:25;10.90;99.90
19220;DHT22;9744;49.364;7.484;2023-03-30T09:38:56;11.00;99.90
19220;DHT22;9744;49.364;7.484;2023-03-30T09:41:47;11.00;99.90
19220;DHT22;9744;49.364;7.484;2023-03-30T09:44:22;11.10;99.90
19220;DHT22;9744;49.364;7.484;2023-03-30T09:46:57;11.10;99.90
19220;DHT22;9744;49.364;7.484;2023-03-30T09:49:26;11.20;99.90
19220;DHT22;9744;49.364;7.484;2023-03-30T09:52:00;11.20;99.90
19220;DHT22;9744;49.364;7.484;2023-03-30T09:54:35;11.30;99.90
19220;DHT22;9744;49.364;7.484;2023-03-30T09:57:03;11.40;99.90
19220;DHT22;9744;49.364;7.484;2023-03-30T09:59:32;11.50;99.90
19220;DHT22;9744;49.364;7.484;2023-03-30T10:02:17;11.60;99.90
19220;DHT22;9744;49.364;7.484;2023-03-30T10:05:13;11.60;99.90
19220;DHT22;9744;49.364;7.484;2023-03-30T10:07:52;11.70;99.90
19220;DHT22;9744;49.364;7.484;2023-03-30T10:10:30;11.70;99.90
19220;DHT22;9744;49.364;7.484;2023-03-30T10:13:04;11.60;99.90
19220;DHT22;9744;49.364;7.484;2023-03-30T10:15:34;11.50;99.90
19220;DHT22;9744;49.364;7.484;2023-03-30T10:18:14;11.60;99.90
19220;DHT22;9744;49.364;7.484;2023-03-30T10:20:46;11.60;99.90
19220;DHT22;9744;49.364;7.484;2023-03-30T10:23:18;11.70;99.90
19220;DHT22;9744;49.364;7.484;2023-03-30T10:25:49;11.70;99.90
19220;DHT22;9744;49.364;7.484;2023-03-30T10:28:19;11.70;99.90
19220;DHT22;9744;49.364;7.484;2023-03-30T10:30:52;11.80;99.90
19220;DHT22;9744;49.364;7.484;2023-03-30T10:33:21;11.80;99.90
19220;DHT22;9744;49.364;7.484;2023-03-30T10:35:50;11.80;99.90
19220;DHT22;9744;49.364;7.484;2023-03-30T10:38:20;11.90;99.90
19220;DHT22;9744;49.364;7.484;2023-03-30T10:40:52;12.10;99.90
19220;DHT22;9744;49.364;7.484;2023-03-30T10:43:29;12.40;99.90
19220;DHT22;9744;49.364;7.484;2023-03-30T10:45:58;12.40;99.90
19220;DHT22;9744;49.364;7.484;2023-03-30T10:48:52;12.50;99.90
19220;DHT22;9744;49.364;7.484;2023-03-30T10:51:30;12.50;99.90
19220;DHT22;9744;49.364;7.484;2023-03-30T10:54:06;12.60;99.90
19220;DHT22;9744;49.364;7.484;2023-03-30T10:56:41;12.80;99.90
19220;DHT22;9744;49.364;7.484;2023-03-30T10:59:22;13.10;99.90
19220;DHT22;9744;49.364;7.484;2023-03-30T11:02:05;13.30;99.90
19220;DHT22;9744;49.364;7.484;2023-03-30T11:04:40;13.30;99.90
19220;DHT22;9744;49.364;7.484;2023-03-30T11:07:12;13.60;99.90
19220;DHT22;9744;49.364;7.484;2023-03-30T11:09:49;13.90;99.90
19220;DHT22;9744;49.364;7.484;2023-03-30T11:12:21;14.10;99.90
19220;DHT22;9744;49.364;7.484;2023-03-30T11:14:54;14.10;99.90
19220;DHT22;9744;49.364;7.484;2023-03-30T11:17:26;14.10;99.90
19220;DHT22;9744;49.364;7.484;2023-03-30T11:19:55;14.00;99.90
19220;DHT22;9744;49.364;7.484;2023-03-30T11:22:29;14.00;99.90
19220;DHT22;9744;49.364;7.484;2023-03-30T11:25:14;13.70;99.90
19220;DHT22;9744;49.364;7.484;2023-03-30T11:27:51;13.70;99.90
19220;DHT22;9744;49.364;7.484;2023-03-30T11:30:23;13.50;99.90
19220;DHT22;9744;49.364;7.484;2023-03-30T11:32:55;13.60;99.90
19220;DHT22;9744;49.364;7.484;2023-03-30T11:35:29;13.60;99.90
19220;DHT22;9744;49.364;7.484;2023-03-30T11:38:03;13.50;99.90
19220;DHT22;9744;49.364;7.484;2023-03-30T11:40:41;13.40;99.90
19220;DHT22;9744;49.364;7.484;2023-03-30T11:43:11;13.40;99.90
19220;DHT22;9744;49.364;7.484;2023-03-30T11:45:48;13.60;99.90
19220;DHT22;9744;49.364;7.484;2023-03-30T11:48:43;13.90;99.90
19220;DHT22;9744;49.364;7.484;2023-03-30T11:51:29;14.00;99.90
19220;DHT22;9744;49.364;7.484;2023-03-30T11:54:16;13.70;99.90
19220;DHT22;9744;49.364;7.484;2023-03-30T11:56:52;13.40;99.90
19220;DHT22;9744;49.364;7.484;2023-03-30T11:59:30;13.30;99.90
19220;DHT22;9744;49.364;7.484;2023-03-30T12:02:09;13.50;99.90
19220;DHT22;9744;49.364;7.484;2023-03-30T12:04:44;13.90;99.90
19220;DHT22;9744;49.364;7.484;2023-03-30T12:07:28;14.20;99.90
19220;DHT22;9744;49.364;7.484;2023-03-30T12:10:00;14.70;99.90
19220;DHT22;9744;49.364;7.484;2023-03-30T12:12:30;14.80;99.90
19220;DHT22;9744;49.364;7.484;2023-03-30T12:15:25;15.10;99.90
19220;DHT22;9744;49.364;7.484;2023-03-30T12:18:04;15.30;99.90
19220;DHT22;9744;49.364;7.484;2023-03-30T12:20:42;15.50;99.90
19220;DHT22;9744;49.364;7.484;2023-03-30T12:23:22;15.60;99.90
19220;DHT22;9744;49.364;7.484;2023-03-30T12:26:05;15.60;99.90
19220;DHT22;9744;49.364;7.484;2023-03-30T12:28:46;15.40;99.90
19220;DHT22;9744;49.364;7.484;2023-03-30T12:31:15;15.20;99.90
19220;DHT22;9744;49.364;7.484;2023-03-30T12:33:47;15.20;99.90
19220;DHT22;9744;49.364;7.484;2023-03-30T12:36:24;15.00;99.90
19220;DHT22;9744;49.364;7.484;2023-03-30T12:39:00;15.10;99.90
19220;DHT22;9744;49.364;7.484;2023-03-30T12:41:38;15.40;99.90
19220;DHT22;9744;49.364;7.484;2023-03-30T12:44:30;15.40;99.90
19220;DHT22;9744;49.364;7.484;2023-03-30T12:50:03;15.50;99.90
19220;DHT22;9744;49.364;7.484;2023-03-30T12:52:53;15.70;99.90
19220;DHT22;9744;49.364;7.484;2023-03-30T12:55:33;15.60;99.90
19220;DHT22;9744;49.364;7.484;2023-03-30T12:58:17;15.70;99.90
19220;DHT22;9744;49.364;7.484;2023-03-30T13:01:18;15.80;99.90
19220;DHT22;9744;49.364;7.484;2023-03-30T13:03:52;16.00;99.90
19220;DHT22;9744;49.364;7.484;2023-03-30T13:06:24;16.00;99.90
19220;DHT22;9744;49.364;7.484;2023-03-30T13:09:03;15.70;99.90
19220;DHT22;9744;49.364;7.484;2023-03-30T13:11:42;15.60;99.90
19220;DHT22;9744;49.364;7.484;2023-03-30T13:14:15;15.50;99.90
19220;DHT22;9744;49.364;7.484;2023-03-30T13:16:48;15.10;99.90
19220;DHT22;9744;49.364;7.484;2023-03-30T13:19:46;14.90;99.90
19220;DHT22;9744;49.364;7.484;2023-03-30T13:22:35;14.30;99.90
19220;DHT22;9744;49.364;7.484;2023-03-30T13:25:25;13.90;99.90
19220;DHT22;9744;49.364;7.484;2023-03-30T13:27:56;13.90;99.90
19220;DHT22;9744;49.364;7.484;2023-03-30T13:30:27;14.00;99.90
19220;DHT22;9744;49.364;7.484;2023-03-30T13:33:05;14.00;99.90
19220;DHT22;9744;49.364;7.484;2023-03-30T13:35:47;14.20;99.90
19220;DHT22;9744;49.364;7.484;2023-03-30T13:38:39;14.30;99.90
19220;DHT22;9744;49.364;7.484;2023-03-30T13:41:24;14.50;99.90
19220;DHT22;9744;49.364;7.484;2023-03-30T13:44:04;14.70;99.90
19220;DHT22;9744;49.364;7.484;2023-03-30T13:46:39;15.00;99.90
19220;DHT22;9744;49.364;7.484;2023-03-30T13:49:17;15.30;99.90
19220;DHT22;9744;49.364;7.484;2023-03-30T13:51:47;15.30;99.90
19220;DHT22;9744;49.364;7.484;2023-03-30T13:54:17;15.20;99.90
19220;DHT22;9744;49.364;7.484;2023-03-30T13:56:52;15.00;99.90
19220;DHT22;9744;49.364;7.484;2023-03-30T13:59:26;14.60;99.90
19220;DHT22;9744;49.364;7.484;2023-03-30T14:01:56;14.40;99.90
19220;DHT22;9744;49.364;7.484;2023-03-30T14:04:28;14.30;99.90
19220;DHT22;9744;49.364;7.484;2023-03-30T14:06:56;14.40;99.90
19220;DHT22;9744;49.364;7.484;2023-03-30T14:09:25;14.60;99.90
19220;DHT22;9744;49.364;7.484;2023-03-30T14:11:56;14.60;99.90
19220;DHT22;9744;49.364;7.484;2023-03-30T14:14:30;14.90;99.90
19220;DHT22;9744;49.364;7.484;2023-03-30T14:17:01;14.90;99.90
19220;DHT22;9744;49.364;7.484;2023-03-30T14:19:32;15.00;99.90
19220;DHT22;9744;49.364;7.484;2023-03-30T14:22:02;15.20;99.90
19220;DHT22;9744;49.364;7.484;2023-03-30T14:24:32;15.50;99.90
19220;DHT22;9744;49.364;7.484;2023-03-30T14:27:05;15.60;99.90
19220;DHT22;9744;49.364;7.484;2023-03-30T14:29:32;15.90;99.90
19220;DHT22;9744;49.364;7.484;2023-03-30T14:32:00;15.80;99.90
19220;DHT22;9744;49.364;7.484;2023-03-30T14:34:29;15.70;99.90
19220;DHT22;9744;49.364;7.484;2023-03-30T14:36:59;15.80;99.90
19220;DHT22;9744;49.364;7.484;2023-03-30T14:39:27;15.80;99.90
19220;DHT22;9744;49.364;7.484;2023-03-30T14:41:55;15.90;99.90
19220;DHT22;9744;49.364;7.484;2023-03-30T14:44:26;16.00;99.90
19220;DHT22;9744;49.364;7.484;2023-03-30T14:46:54;16.20;99.90
19220;DHT22;9744;49.364;7.484;2023-03-30T14:49:29;15.90;99.90
19220;DHT22;9744;49.364;7.484;2023-03-30T14:51:59;15.90;99.90
19220;DHT22;9744;49.364;7.484;2023-03-30T14:54:27;15.90;99.90
19220;DHT22;9744;49.364;7.484;2023-03-30T14:56:56;16.10;99.90
19220;DHT22;9744;49.364;7.484;2023-03-30T14:59:26;15.80;99.90
19220;DHT22;9744;49.364;7.484;2023-03-30T15:01:54;15.60;99.90
19220;DHT22;9744;49.364;7.484;2023-03-30T15:04:24;15.30;99.90
19220;DHT22;9744;49.364;7.484;2023-03-30T15:06:53;15.30;99.90
19220;DHT22;9744;49.364;7.484;2023-03-30T15:09:21;15.20;99.90
19220;DHT22;9744;49.364;7.484;2023-03-30T15:11:51;14.90;99.90
19220;DHT22;9744;49.364;7.484;2023-03-30T15:14:22;14.70;99.90
19220;DHT22;9744;49.364;7.484;2023-03-30T15:16:53;14.60;99.90
19220;DHT22;9744;49.364;7.484;2023-03-30T15:19:26;14.50;99.90
19220;DHT22;9744;49.364;7.484;2023-03-30T15:21:57;14.30;99.90
19220;DHT22;9744;49.364;7.484;2023-03-30T15:24:27;14.10;99.90
19220;DHT22;9744;49.364;7.484;2023-03-30T15:26:59;13.90;99.90
19220;DHT22;9744;49.364;7.484;2023-03-30T15:29:28;13.80;99.90
19220;DHT22;9744;49.364;7.484;2023-03-30T15:32:06;13.70;99.90
19220;DHT22;9744;49.364;7.484;2023-03-30T15:34:57;13.60;99.90
19220;DHT22;9744;49.364;7.484;2023-03-30T15:37:26;13.60;99.90
19220;DHT22;9744;49.364;7.484;2023-03-30T15:39:53;13.50;99.90
19220;DHT22;9744;49.364;7.484;2023-03-30T15:42:24;13.50;99.90
19220;DHT22;9744;49.364;7.484;2023-03-30T15:45:00;13.40;99.90
19220;DHT22;9744;49.364;7.484;2023-03-30T15:47:29;13.40;99.90
19220;DHT22;9744;49.364;7.484;2023-03-30T15:49:57;13.30;99.90
19220;DHT22;9744;49.364;7.484;2023-03-30T15:52:31;13.30;99.90
19220;DHT22;9744;49.364;7.484;2023-03-30T15:55:02;13.30;99.90
19220;DHT22;9744;49.364;7.484;2023-03-30T15:57:32;13.20;99.90
19220;DHT22;9744;49.364;7.484;2023-03-30T16:00:02;13.20;99.90
19220;DHT22;9744;49.364;7.484;2023-03-30T16:02:39;13.20;99.90
19220;DHT22;9744;49.364;7.484;2023-03-30T16:05:15;13.20;99.90
19220;DHT22;9744;49.364;7.484;2023-03-30T16:07:42;13.60;99.90
19220;DHT22;9744;49.364;7.484;2023-03-30T16:10:12;13.90;99.90
19220;DHT22;9744;49.364;7.484;2023-03-30T16:12:40;13.80;99.90
19220;DHT22;9744;49.364;7.484;2023-03-30T16:15:12;13.70;99.90
19220;DHT22;9744;49.364;7.484;2023-03-30T16:17:42;13.70;99.90
19220;DHT22;9744;49.364;7.484;2023-03-30T16:20:15;13.50;99.90
19220;DHT22;9744;49.364;7.484;2023-03-30T16:22:43;13.20;99.90
19220;DHT22;9744;49.364;7.484;2023-03-30T16:25:12;12.90;99.90
19220;DHT22;9744;49.364;7.484;2023-03-30T16:27:40;12.50;99.90
19220;DHT22;9744;49.364;7.484;2023-03-30T16:30:15;12.40;99.90
19220;DHT22;9744;49.364;7.484;2023-03-30T16:32:44;12.10;99.90
19220;DHT22;9744;49.364;7.484;2023-03-30T16:35:12;11.90;99.90
19220;DHT22;9744;49.364;7.484;2023-03-30T16:37:39;11.90;99.90